Time;durP1;ratioP1;P1;durP2;ratioP2;P2;SDS_P1;SDS_P2;PMS_P1;PMS_P2;Temp;Humidity;BMP_temperature;BMP_pressure;BME280_temperature;BME280_humidity;BME280_pressure;Samples;Min_cycle;Max_cycle;Signal;HPM_P1;HPM_P2
2022/01/09 00:01:17;;;;;;;22.48;16.33;;;4.30;99.90;;;;;;5037162;28;20060;-86
2022/01/09 00:03:44;;;;;;;20.43;15.37;;;4.30;99.90;;;;;;4921097;28;2998055;-89
2022/01/09 00:06:19;;;;;;;23.63;16.17;;;4.30;99.90;;;;;;5037759;28;20046;-89
2022/01/09 00:08:46;;;;;;;23.92;16.33;;;4.30;99.90;;;;;;5022401;28;299884;-88
2022/01/09 00:11:17;;;;;;;21.45;15.18;;;4.30;99.90;;;;;;5044762;28;20053;-88
2022/01/09 00:13:48;;;;;;;;;;;4.30;99.90;;;;;;5030677;28;116778;-89
2022/01/09 00:19:48;;;;;;;22.38;16.13;;;4.30;99.90;;;;;;4939176;28;2996347;-90
2022/01/09 00:25:53;;;;;;;21.75;15.65;;;4.30;99.90;;;;;;5005866;28;321080;-90
2022/01/09 00:31:16;;;;;;;23.45;16.35;;;4.30;99.90;;;;;;4950891;28;20042;-88
2022/01/09 00:34:10;;;;;;;22.55;16.42;;;4.30;99.90;;;;;;4956429;28;267105;-87
2022/01/09 00:37:15;;;;;;;22.45;15.23;;;4.40;99.90;;;;;;4988298;28;20065;-88
2022/01/09 00:40:02;;;;;;;24.92;16.98;;;4.30;99.90;;;;;;4929792;28;70843;-89
2022/01/09 00:42:51;;;;;;;22.05;16.30;;;4.40;99.90;;;;;;4961378;28;20051;-89
2022/01/09 00:45:30;;;;;;;;;;;;;;;;;;;;;
2022/01/09 00:48:35;;;;;;;24.33;16.33;;;4.40;99.90;;;;;;4884425;29;20126;-89
2022/01/09 00:51:30;;;;;;;;;;;;;;;;;;;;;
2022/01/09 00:54:22;;;;;;;21.60;15.75;;;4.40;99.90;;;;;;4865774;29;220710;-88
2022/01/09 01:00:07;;;;;;;;;;;;;;;;;;;;;
2022/01/09 01:03:25;;;;;;;21.73;15.07;;;4.40;99.90;;;;;;4836913;29;20534;-89
2022/01/09 01:06:51;;;;;;;22.90;16.42;;;4.40;99.90;;;;;;4310749;29;10003329;-90
2022/01/09 01:10:05;;;;;;;24.38;16.48;;;4.40;99.90;;;;;;4671429;29;3010884;-90
2022/01/09 01:20:21;;;;;;;22.77;16.10;;;4.30;99.90;;;;;;5068237;27;273677;-69
2022/01/09 01:22:49;;;;;;;24.27;16.17;;;4.40;99.90;;;;;;5071196;28;20048;-68
2022/01/09 01:25:17;;;;;;;23.40;15.70;;;4.40;99.90;;;;;;5060163;28;85367;-68
2022/01/09 01:27:44;;;;;;;23.30;16.13;;;4.40;99.90;;;;;;5060966;28;20409;-68
2022/01/09 01:30:11;;;;;;;24.83;17.02;;;4.40;99.90;;;;;;5046795;28;268137;-68
2022/01/09 01:32:38;;;;;;;23.52;16.63;;;4.40;99.90;;;;;;5076755;22;20049;-69
2022/01/09 01:35:04;;;;;;;24.60;17.40;;;4.40;99.90;;;;;;5022634;28;191646;-71
2022/01/09 01:37:30;;;;;;;23.80;16.38;;;4.40;99.90;;;;;;5039205;28;20056;-71
2022/01/09 01:39:56;;;;;;;23.60;16.35;;;4.50;99.90;;;;;;5042318;28;253059;-71
2022/01/09 01:42:23;;;;;;;25.95;17.20;;;4.40;99.90;;;;;;5057861;28;20056;-69
2022/01/09 01:44:50;;;;;;;25.73;17.52;;;4.40;99.90;;;;;;5021426;28;33351;-69
2022/01/09 01:47:18;;;;;;;31.90;18.17;;;4.50;99.90;;;;;;5057582;28;20055;-69
2022/01/09 01:49:46;;;;;;;26.27;17.83;;;4.40;99.90;;;;;;5037977;28;113540;-68
2022/01/09 01:52:14;;;;;;;27.00;17.40;;;4.40;99.90;;;;;;5055526;28;20071;-69
2022/01/09 01:54:42;;;;;;;26.00;16.95;;;4.50;99.90;;;;;;5040200;28;262122;-70
2022/01/09 01:57:09;;;;;;;27.20;17.42;;;4.50;99.90;;;;;;5059280;28;20064;-70
2022/01/09 01:59:35;;;;;;;24.38;16.50;;;4.50;99.90;;;;;;5024740;28;53848;-69
2022/01/09 02:02:03;;;;;;;28.73;17.67;;;4.50;99.90;;;;;;5049959;28;20060;-70
2022/01/09 02:04:29;;;;;;;27.42;17.83;;;4.50;99.90;;;;;;5009434;28;175020;-70
2022/01/09 02:06:56;;;;;;;25.45;15.93;;;4.50;99.90;;;;;;5042843;28;20075;-70
2022/01/09 02:09:24;;;;;;;26.15;16.13;;;4.50;99.90;;;;;;5022733;28;139619;-70
2022/01/09 02:11:50;;;;;;;30.80;17.60;;;4.60;99.90;;;;;;5035271;28;20072;-70
2022/01/09 02:14:16;;;;;;;31.77;17.83;;;4.50;99.90;;;;;;5039280;28;271729;-70
2022/01/09 02:16:43;;;;;;;28.50;16.58;;;4.60;99.90;;;;;;5040573;28;20072;-71
2022/01/09 02:19:14;;;;;;;29.08;15.77;;;4.60;99.90;;;;;;5025383;28;241004;-71
2022/01/09 02:21:42;;;;;;;24.60;15.13;;;4.60;99.90;;;;;;5059491;28;20075;-71
2022/01/09 02:24:08;;;;;;;23.63;13.15;;;4.60;99.90;;;;;;5038854;28;267698;-70
2022/01/09 02:26:34;;;;;;;26.55;14.48;;;4.60;99.90;;;;;;5040260;28;20056;-70
2022/01/09 02:29:00;;;;;;;28.23;14.75;;;4.60;99.90;;;;;;5035208;28;224236;-70
2022/01/09 02:31:26;;;;;;;28.50;14.93;;;4.70;99.90;;;;;;5026882;28;20067;-70
2022/01/09 02:33:52;;;;;;;28.10;14.98;;;4.70;99.90;;;;;;5030033;28;269311;-70
2022/01/09 02:36:18;;;;;;;27.60;15.38;;;4.70;99.90;;;;;;5021689;28;20120;-69
2022/01/09 02:38:44;;;;;;;31.77;14.60;;;4.70;99.90;;;;;;5027711;28;254436;-70
2022/01/09 02:41:11;;;;;;;25.45;14.25;;;4.70;99.90;;;;;;5047296;28;20053;-69
2022/01/09 02:43:37;;;;;;;25.42;13.88;;;4.70;99.90;;;;;;5012458;28;270141;-71
2022/01/09 02:46:15;;;;;;;26.98;13.63;;;4.80;99.90;;;;;;5026018;28;20037;-70
2022/01/09 02:48:42;;;;;;;26.08;11.80;;;4.70;99.90;;;;;;5024735;28;270624;-70
2022/01/09 02:51:13;;;;;;;27.85;11.80;;;4.80;99.90;;;;;;5023218;28;20053;-70
2022/01/09 02:53:41;;;;;;;33.80;11.80;;;4.90;99.90;;;;;;5007006;28;254114;-70
2022/01/09 02:56:09;;;;;;;29.63;11.45;;;5.00;99.90;;;;;;5019013;28;20057;-70
2022/01/09 02:58:37;;;;;;;29.58;10.65;;;5.10;99.90;;;;;;5039193;28;257523;-71
2022/01/09 03:01:05;;;;;;;30.05;10.88;;;5.10;99.90;;;;;;5020040;28;20053;-70
2022/01/09 03:03:32;;;;;;;30.10;10.07;;;5.20;99.90;;;;;;5022432;28;20485;-70
2022/01/09 03:05:58;;;;;;;29.50;9.15;;;5.20;99.90;;;;;;4977339;28;161303;-70
2022/01/09 03:08:24;;;;;;;31.65;9.48;;;5.30;99.90;;;;;;5003184;28;20072;-70
2022/01/09 03:10:51;;;;;;;31.15;9.30;;;5.30;99.90;;;;;;4977401;28;203642;-70
2022/01/09 03:13:17;;;;;;;34.25;8.45;;;5.40;99.90;;;;;;5025369;28;20045;-70
2022/01/09 03:15:43;;;;;;;37.72;9.02;;;5.40;99.90;;;;;;4998636;28;262747;-69
2022/01/09 03:18:10;;;;;;;45.40;8.45;;;5.40;99.90;;;;;;5004401;28;20053;-70
2022/01/09 03:20:36;;;;;;;40.58;7.93;;;5.50;99.90;;;;;;4984060;28;134109;-70
2022/01/09 03:23:02;;;;;;;43.78;7.35;;;5.50;99.90;;;;;;5004930;28;20083;-70
2022/01/09 03:25:29;;;;;;;40.97;7.03;;;5.50;99.90;;;;;;4997472;28;263714;-70
2022/01/09 03:27:58;;;;;;;46.03;8.00;;;5.60;99.90;;;;;;5002249;28;20057;-71
2022/01/09 03:30:25;;;;;;;49.95;7.20;;;5.70;99.90;;;;;;4995626;28;259530;-70
2022/01/09 03:32:53;;;;;;;52.47;7.00;;;5.70;99.90;;;;;;5008238;28;20050;-70
2022/01/09 03:35:21;;;;;;;54.17;7.10;;;5.80;99.90;;;;;;5001166;28;248851;-71
2022/01/09 03:37:49;;;;;;;64.63;7.00;;;5.80;99.90;;;;;;5003510;28;20049;-71
2022/01/09 03:40:18;;;;;;;56.78;7.38;;;5.80;99.90;;;;;;5015933;28;275979;-71
2022/01/09 03:42:46;;;;;;;52.38;7.43;;;5.80;99.90;;;;;;5023454;28;20430;-70
2022/01/09 03:45:12;;;;;;;53.25;7.25;;;5.80;99.90;;;;;;5006297;28;137403;-70
2022/01/09 03:47:39;;;;;;;51.47;7.13;;;5.90;99.90;;;;;;5020386;28;20053;-71
2022/01/09 03:50:08;;;;;;;53.63;6.68;;;5.90;99.90;;;;;;5000158;28;160035;-70
2022/01/09 03:52:37;;;;;;;52.15;6.45;;;5.90;99.90;;;;;;5017896;28;20053;-71
2022/01/09 03:55:08;;;;;;;63.88;6.75;;;5.90;99.90;;;;;;5019109;28;207491;-71
2022/01/09 03:57:34;;;;;;;63.72;7.35;;;6.00;99.90;;;;;;5021004;28;20057;-71
2022/01/09 04:00:00;;;;;;;60.35;7.00;;;6.00;99.90;;;;;;4994678;28;20052;-70
2022/01/09 04:02:27;;;;;;;52.40;6.65;;;6.00;99.90;;;;;;5024603;28;20517;-71
2022/01/09 04:04:53;;;;;;;53.65;7.03;;;6.00;99.90;;;;;;4978948;28;249359;-70
2022/01/09 04:07:19;;;;;;;61.88;6.57;;;6.10;99.90;;;;;;5022587;28;20583;-70
2022/01/09 04:09:47;;;;;;;52.70;6.40;;;6.10;99.90;;;;;;5010990;28;269221;-70
2022/01/09 04:12:16;;;;;;;59.08;6.18;;;6.10;99.90;;;;;;5028356;28;20049;-69
2022/01/09 04:14:44;;;;;;;54.45;5.80;;;6.10;99.90;;;;;;4998911;28;52273;-69
2022/01/09 04:17:18;;;;;;;56.42;5.63;;;6.10;99.90;;;;;;5016142;28;20062;-69
2022/01/09 04:19:44;;;;;;;63.28;5.85;;;6.10;99.90;;;;;;5006296;28;266034;-69
2022/01/09 04:22:10;;;;;;;50.95;6.18;;;6.10;99.90;;;;;;5018465;28;20069;-70
2022/01/09 04:24:36;;;;;;;44.72;6.05;;;6.10;99.90;;;;;;5008673;28;251173;-71
2022/01/09 04:27:03;;;;;;;52.33;6.57;;;6.10;99.90;;;;;;5012151;28;20524;-70
2022/01/09 04:29:29;;;;;;;45.75;5.45;;;6.10;99.90;;;;;;5011070;28;131756;-69
2022/01/09 04:31:55;;;;;;;52.95;5.78;;;6.10;99.90;;;;;;5032004;28;20049;-70
2022/01/09 04:34:21;;;;;;;46.58;5.63;;;6.10;99.90;;;;;;5009870;28;251541;-70
2022/01/09 04:36:47;;;;;;;57.58;5.65;;;6.10;99.90;;;;;;5018019;28;20068;-69
2022/01/09 04:39:13;;;;;;;48.80;5.25;;;6.10;99.90;;;;;;4991368;28;244429;-69
2022/01/09 04:41:39;;;;;;;48.10;5.80;;;6.10;99.90;;;;;;5021931;28;20050;-69
2022/01/09 04:44:05;;;;;;;46.03;5.07;;;6.10;99.90;;;;;;5012321;28;254012;-71
2022/01/09 04:46:42;;;;;;;42.38;4.38;;;6.10;99.90;;;;;;5006289;28;20049;-70
2022/01/09 04:49:08;;;;;;;49.58;5.20;;;6.10;99.90;;;;;;5000217;28;229381;-69
2022/01/09 04:51:34;;;;;;;39.17;4.82;;;6.10;99.90;;;;;;5018860;28;20494;-69
2022/01/09 04:54:00;;;;;;;39.42;5.22;;;6.10;99.90;;;;;;5008248;28;248869;-69
2022/01/09 04:56:28;;;;;;;41.95;4.88;;;6.10;99.90;;;;;;5036393;28;20071;-69
2022/01/09 04:58:54;;;;;;;41.85;4.95;;;6.10;99.90;;;;;;5005134;28;259694;-70
2022/01/09 05:01:20;;;;;;;42.95;5.20;;;6.10;99.90;;;;;;5013123;28;20046;-69
2022/01/09 05:03:46;;;;;;;40.47;4.75;;;6.10;99.90;;;;;;4989393;28;251171;-69
2022/01/09 05:06:12;;;;;;;39.10;5.40;;;6.10;99.90;;;;;;5002547;28;20045;-68
2022/01/09 05:08:38;;;;;;;42.40;5.20;;;6.10;99.90;;;;;;4999343;28;264239;-71
2022/01/09 05:11:04;;;;;;;41.80;4.85;;;6.00;99.90;;;;;;5015976;28;20058;-68
2022/01/09 05:13:31;;;;;;;41.47;5.15;;;6.00;99.90;;;;;;5019390;28;20045;-69
2022/01/09 05:15:57;;;;;;;36.83;4.50;;;6.00;99.90;;;;;;5018288;28;254806;-69
2022/01/09 05:18:23;;;;;;;34.67;4.82;;;6.00;99.90;;;;;;5023219;28;20042;-70
2022/01/09 05:20:49;;;;;;;37.47;3.92;;;6.00;99.90;;;;;;5007642;28;92508;-69
2022/01/09 05:23:16;;;;;;;33.28;4.00;;;6.00;99.90;;;;;;5023140;28;20153;-69
2022/01/09 05:25:42;;;;;;;41.78;4.32;;;5.90;99.90;;;;;;4996735;28;232975;-70
2022/01/09 05:28:08;;;;;;;35.17;4.47;;;5.90;99.90;;;;;;5023268;28;20049;-69
2022/01/09 05:30:34;;;;;;;41.00;4.95;;;5.90;99.90;;;;;;5006240;28;65089;-69
2022/01/09 05:33:01;;;;;;;37.95;4.55;;;5.90;99.90;;;;;;5022076;28;20087;-69
2022/01/09 05:35:28;;;;;;;28.75;4.00;;;5.90;99.90;;;;;;5016894;28;273400;-69
2022/01/09 05:37:54;;;;;;;27.60;3.47;;;5.80;99.90;;;;;;5017144;28;20582;-69
2022/01/09 05:40:20;;;;;;;37.97;3.97;;;5.80;99.90;;;;;;5008594;28;272537;-69
2022/01/09 05:42:47;;;;;;;23.83;3.22;;;5.80;99.90;;;;;;5019995;28;20537;-69
2022/01/09 05:45:17;;;;;;;28.25;3.25;;;5.80;99.90;;;;;;5010865;28;272890;-69
2022/01/09 05:47:43;;;;;;;27.00;3.28;;;5.70;99.90;;;;;;5021777;28;20060;-69
2022/01/09 05:50:10;;;;;;;29.67;3.95;;;5.70;99.90;;;;;;5005921;28;272952;-70
2022/01/09 05:52:36;;;;;;;24.52;2.92;;;5.70;99.90;;;;;;5018698;28;20053;-69
2022/01/09 05:55:03;;;;;;;28.80;3.60;;;5.70;99.90;;;;;;5009940;28;55045;-69
2022/01/09 05:57:29;;;;;;;26.92;3.25;;;5.70;99.90;;;;;;5018743;28;20049;-69
2022/01/09 05:59:55;;;;;;;27.33;3.25;;;5.70;99.90;;;;;;5005588;28;51097;-69
2022/01/09 06:02:21;;;;;;;26.73;3.45;;;5.60;99.90;;;;;;5016627;28;20045;-68
2022/01/09 06:04:47;;;;;;;25.65;3.95;;;5.70;99.90;;;;;;4992577;28;252726;-68
2022/01/09 06:07:13;;;;;;;23.17;3.42;;;5.60;99.90;;;;;;5024960;28;20063;-69
2022/01/09 06:09:40;;;;;;;29.98;3.72;;;5.60;99.90;;;;;;5009996;28;71375;-69
2022/01/09 06:12:06;;;;;;;30.00;4.00;;;5.60;99.90;;;;;;5020348;28;20584;-69
2022/01/09 06:14:32;;;;;;;26.92;3.03;;;5.60;99.90;;;;;;5005428;28;256470;-68
2022/01/09 06:16:58;;;;;;;35.15;3.88;;;5.60;99.90;;;;;;5017251;28;20053;-69
2022/01/09 06:19:25;;;;;;;30.05;3.85;;;5.60;99.90;;;;;;5008825;28;30319;-69
2022/01/09 06:21:51;;;;;;;25.80;2.67;;;5.60;99.90;;;;;;5020009;28;22729;-69
2022/01/09 06:24:17;;;;;;;27.75;3.53;;;5.60;99.90;;;;;;5006808;28;255864;-69
2022/01/09 06:26:43;;;;;;;31.90;3.65;;;5.50;99.90;;;;;;5028240;28;20061;-69
2022/01/09 06:29:09;;;;;;;38.42;4.28;;;5.60;99.90;;;;;;5013517;28;256405;-69
2022/01/09 06:31:35;;;;;;;29.60;3.50;;;5.60;99.90;;;;;;5036268;28;20061;-69
2022/01/09 06:34:01;;;;;;;24.15;3.67;;;5.50;99.90;;;;;;5009755;28;270647;-70
2022/01/09 06:36:27;;;;;;;32.20;4.07;;;5.60;99.90;;;;;;5019433;28;20100;-70
2022/01/09 06:38:53;;;;;;;23.45;3.60;;;5.60;99.90;;;;;;5007142;28;260664;-70
2022/01/09 06:41:19;;;;;;;28.15;3.17;;;5.60;99.90;;;;;;5021330;28;20475;-69
2022/01/09 06:43:45;;;;;;;22.77;3.00;;;5.60;99.90;;;;;;5005800;28;263339;-70
2022/01/09 06:46:12;;;;;;;30.65;3.55;;;5.50;99.90;;;;;;5018081;28;20057;-69
2022/01/09 06:48:38;;;;;;;21.60;3.50;;;5.50;99.90;;;;;;5001934;28;253984;-70
2022/01/09 06:51:04;;;;;;;29.83;3.60;;;5.50;99.90;;;;;;5034194;28;20471;-70
2022/01/09 06:53:30;;;;;;;27.98;3.35;;;5.50;99.90;;;;;;5023152;28;20053;-70
2022/01/09 06:55:56;;;;;;;23.45;3.25;;;5.50;99.90;;;;;;5011397;28;274526;-69
2022/01/09 06:58:22;;;;;;;27.33;3.00;;;5.50;99.90;;;;;;5024056;28;20494;-69
2022/01/09 07:00:48;;;;;;;23.90;3.10;;;5.50;99.90;;;;;;5016324;28;272025;-70
2022/01/09 07:03:15;;;;;;;30.73;3.90;;;5.50;99.90;;;;;;5022212;28;20049;-70
2022/01/09 07:05:41;;;;;;;24.83;3.17;;;5.50;99.90;;;;;;4977857;28;242422;-70
2022/01/09 07:08:07;;;;;;;30.10;3.45;;;5.40;99.90;;;;;;5018865;28;20590;-69
2022/01/09 07:10:33;;;;;;;31.25;3.15;;;5.40;99.90;;;;;;5019818;28;106071;-69
2022/01/09 07:12:59;;;;;;;28.83;3.38;;;5.30;99.90;;;;;;5024468;28;20053;-69
2022/01/09 07:15:26;;;;;;;22.27;3.10;;;5.30;99.90;;;;;;5020699;28;257021;-70
2022/01/09 07:17:52;;;;;;;25.42;3.05;;;5.30;99.90;;;;;;5026511;28;20049;-70
2022/01/09 07:20:18;;;;;;;23.90;3.05;;;5.20;99.90;;;;;;5019596;28;250458;-69
2022/01/09 07:22:44;;;;;;;27.52;3.00;;;5.20;99.90;;;;;;5021804;28;20241;-69
2022/01/09 07:25:10;;;;;;;22.67;2.70;;;5.20;99.90;;;;;;5003986;28;59925;-69
2022/01/09 07:27:36;;;;;;;27.92;3.15;;;5.10;99.90;;;;;;5022927;28;20470;-69
2022/01/09 07:30:03;;;;;;;26.25;3.00;;;5.10;99.90;;;;;;5017324;28;159959;-69
2022/01/09 07:32:29;;;;;;;20.88;3.00;;;5.10;99.90;;;;;;5037352;22;20161;-70
2022/01/09 07:34:57;;;;;;;22.58;3.00;;;5.10;99.90;;;;;;5021080;28;248927;-70
2022/01/09 07:37:25;;;;;;;17.25;2.75;;;5.00;99.90;;;;;;5041584;28;20076;-70
2022/01/09 07:39:51;;;;;;;20.15;2.33;;;5.00;99.90;;;;;;5017306;28;253192;-71
2022/01/09 07:42:17;;;;;;;24.13;2.60;;;5.00;99.90;;;;;;5039388;28;20045;-70
2022/01/09 07:44:43;;;;;;;20.15;2.60;;;5.00;99.90;;;;;;5008037;28;30433;-71
2022/01/09 07:47:09;;;;;;;20.27;2.78;;;5.00;99.90;;;;;;5033652;28;20053;-69
2022/01/09 07:49:36;;;;;;;22.15;2.70;;;5.00;99.90;;;;;;5004272;28;120837;-69
2022/01/09 07:52:02;;;;;;;27.08;2.92;;;5.00;99.90;;;;;;5039362;28;20064;-69
2022/01/09 07:54:28;;;;;;;21.75;2.60;;;5.00;99.90;;;;;;5016964;28;259954;-69
2022/01/09 07:56:54;;;;;;;23.90;2.97;;;4.90;99.90;;;;;;5031943;28;20045;-70
2022/01/09 07:59:20;;;;;;;26.98;3.40;;;4.90;99.90;;;;;;5020933;28;256896;-69
2022/01/09 08:01:46;;;;;;;22.60;3.05;;;4.90;99.90;;;;;;5033295;28;20567;-70
2022/01/09 08:04:13;;;;;;;19.80;2.55;;;4.90;99.90;;;;;;4989784;28;134055;-70
2022/01/09 08:06:39;;;;;;;18.52;2.65;;;4.80;99.90;;;;;;5010394;28;20050;-69
2022/01/09 08:09:05;;;;;;;19.45;2.35;;;4.80;99.90;;;;;;5016812;28;257690;-70
2022/01/09 08:11:31;;;;;;;22.52;2.72;;;4.80;99.90;;;;;;5009714;28;20409;-70
2022/01/09 08:13:57;;;;;;;16.83;2.00;;;4.80;99.90;;;;;;5016689;28;264472;-71
2022/01/09 08:16:23;;;;;;;19.98;2.78;;;4.70;99.90;;;;;;5036162;28;20056;-70
2022/01/09 08:18:51;;;;;;;15.77;2.17;;;4.70;99.90;;;;;;5020682;28;254382;-69
2022/01/09 08:21:19;;;;;;;20.17;2.25;;;4.80;99.90;;;;;;5016590;28;20072;-71
2022/01/09 08:23:47;;;;;;;21.20;2.23;;;4.70;99.90;;;;;;5002105;28;275188;-70
2022/01/09 08:26:15;;;;;;;20.95;2.58;;;4.70;99.90;;;;;;5038527;28;20064;-70
2022/01/09 08:28:44;;;;;;;20.98;2.65;;;4.70;99.90;;;;;;5014242;28;260077;-69
2022/01/09 08:31:11;;;;;;;20.45;2.40;;;4.70;99.90;;;;;;5028383;28;20666;-70
2022/01/09 08:33:37;;;;;;;16.67;2.20;;;4.70;99.90;;;;;;5018700;28;270200;-69
2022/01/09 08:36:04;;;;;;;18.95;1.95;;;4.70;99.90;;;;;;5027508;28;20449;-70
2022/01/09 08:38:30;;;;;;;23.88;2.95;;;4.70;99.90;;;;;;5017723;28;20056;-70
2022/01/09 08:40:57;;;;;;;22.20;2.65;;;4.70;99.90;;;;;;5009485;28;153385;-69
2022/01/09 08:43:23;;;;;;;19.98;2.78;;;4.80;99.90;;;;;;5035215;28;20045;-69
2022/01/09 08:45:49;;;;;;;18.00;2.47;;;4.70;99.90;;;;;;5009209;28;260124;-70
2022/01/09 08:48:15;;;;;;;22.00;2.35;;;4.80;99.90;;;;;;5033239;28;20049;-69
2022/01/09 08:50:41;;;;;;;15.27;2.00;;;4.80;99.90;;;;;;5003991;28;264221;-69
2022/01/09 08:53:08;;;;;;;24.35;2.78;;;4.80;99.90;;;;;;5034569;28;20072;-70
2022/01/09 08:55:34;;;;;;;21.15;2.38;;;4.90;99.90;;;;;;5015765;28;258645;-70
2022/01/09 08:58:00;;;;;;;19.67;2.95;;;4.90;99.90;;;;;;5002498;28;20053;-69
2022/01/09 09:00:26;;;;;;;18.38;2.70;;;4.90;99.90;;;;;;5005658;28;200116;-69
2022/01/09 09:02:52;;;;;;;21.45;3.15;;;5.00;99.90;;;;;;5042774;28;20040;-70
2022/01/09 09:05:20;;;;;;;25.23;3.00;;;5.00;99.90;;;;;;4999961;28;97018;-71
2022/01/09 09:07:47;;;;;;;26.77;3.45;;;5.10;99.90;;;;;;5039349;28;20060;-70
2022/01/09 09:10:13;;;;;;;20.95;2.75;;;5.20;99.90;;;;;;5017180;28;272074;-71
2022/01/09 09:12:39;;;;;;;24.55;3.40;;;5.20;99.90;;;;;;5034708;28;20064;-70
2022/01/09 09:15:07;;;;;;;20.13;2.63;;;5.20;99.90;;;;;;5009605;28;96446;-70
2022/01/09 09:17:34;;;;;;;18.35;2.97;;;5.20;99.90;;;;;;5034883;28;20056;-70
2022/01/09 09:20:00;;;;;;;22.30;2.67;;;5.20;99.90;;;;;;5012308;28;264056;-69
2022/01/09 09:22:26;;;;;;;19.42;2.30;;;5.20;99.90;;;;;;5033498;28;20409;-70
2022/01/09 09:24:53;;;;;;;26.02;3.38;;;5.30;99.90;;;;;;5013198;28;258865;-70
2022/01/09 09:27:21;;;;;;;20.75;2.50;;;5.30;99.90;;;;;;5029300;28;20045;-71
2022/01/09 09:29:47;;;;;;;23.95;3.08;;;5.30;99.90;;;;;;5013689;28;260598;-71
2022/01/09 09:32:13;;;;;;;19.00;2.67;;;5.30;99.90;;;;;;5030059;28;20494;-71
2022/01/09 09:34:39;;;;;;;20.55;2.70;;;5.30;99.90;;;;;;4997404;28;57042;-70
2022/01/09 09:37:06;;;;;;;17.13;2.17;;;5.30;99.90;;;;;;5038797;28;20071;-70
2022/01/09 09:39:33;;;;;;;17.95;2.10;;;5.30;99.90;;;;;;5014770;28;257304;-70
2022/01/09 09:42:00;;;;;;;17.58;2.53;;;5.30;99.90;;;;;;5039691;28;20052;-70
2022/01/09 09:44:26;;;;;;;16.02;2.40;;;5.30;99.90;;;;;;5014312;28;266291;-70
2022/01/09 09:46:53;;;;;;;12.27;1.83;;;5.30;99.90;;;;;;5033267;28;20049;-70
2022/01/09 09:49:20;;;;;;;12.82;1.63;;;5.30;99.90;;;;;;5023763;28;260510;-70
2022/01/09 09:51:49;;;;;;;15.50;2.05;;;5.30;99.90;;;;;;5040909;28;20061;-70
2022/01/09 09:54:15;;;;;;;11.48;1.50;;;5.20;99.90;;;;;;5010244;28;251955;-69
2022/01/09 09:56:41;;;;;;;17.95;2.25;;;5.30;99.90;;;;;;5009075;28;20072;-70
2022/01/09 09:59:07;;;;;;;13.05;1.77;;;5.30;99.90;;;;;;5016213;28;262741;-69
2022/01/09 10:01:36;;;;;;;16.52;2.33;;;5.30;99.90;;;;;;5036543;28;20505;-70
2022/01/09 10:04:04;;;;;;;15.75;2.45;;;5.30;99.90;;;;;;4988915;28;276760;-70
2022/01/09 10:06:43;;;;;;;16.67;2.25;;;5.20;99.90;;;;;;5024079;28;20061;-70
2022/01/09 10:09:12;;;;;;;14.85;1.80;;;5.20;99.90;;;;;;5019173;28;264189;-70
2022/01/09 10:11:44;;;;;;;17.70;1.92;;;5.30;99.90;;;;;;5021371;28;20049;-70
2022/01/09 10:14:18;;;;;;;13.52;1.90;;;5.30;99.90;;;;;;5001300;28;132998;-71
2022/01/09 10:17:05;;;;;;;15.13;1.98;;;5.30;99.90;;;;;;5034940;28;20449;-70
2022/01/09 10:19:57;;;;;;;17.13;2.17;;;5.30;99.90;;;;;;5009773;28;261272;-70
2022/01/09 10:22:37;;;;;;;14.15;1.90;;;5.30;99.90;;;;;;5028714;28;20510;-71
2022/01/09 10:25:16;;;;;;;11.88;1.80;;;5.30;99.90;;;;;;4991121;28;268808;-70
2022/01/09 10:27:44;;;;;;;10.40;1.33;;;5.40;99.90;;;;;;5038758;28;20044;-71
2022/01/09 10:30:11;;;;;;;10.32;1.30;;;5.40;99.90;;;;;;5013338;28;271030;-71
2022/01/09 10:32:37;;;;;;;14.90;1.50;;;5.40;99.90;;;;;;5035260;28;20061;-71
2022/01/09 10:35:16;;;;;;;13.05;1.88;;;5.40;99.90;;;;;;5005271;28;256569;-71
2022/01/09 10:37:46;;;;;;;10.65;1.60;;;5.40;99.90;;;;;;5001792;28;20497;-71
2022/01/09 10:40:21;;;;;;;12.30;1.90;;;5.50;99.90;;;;;;5014599;28;255119;-70
2022/01/09 10:43:11;;;;;;;11.57;1.55;;;5.50;99.90;;;;;;5018631;28;20647;-71
2022/01/09 10:45:40;;;;;;;11.57;1.77;;;5.50;99.90;;;;;;5010369;28;267509;-70
2022/01/09 10:48:21;;;;;;;12.70;1.75;;;5.50;99.90;;;;;;5036130;28;20065;-70
2022/01/09 10:50:48;;;;;;;14.85;2.28;;;5.50;99.90;;;;;;5012645;28;251750;-71
2022/01/09 10:53:25;;;;;;;16.38;2.13;;;5.50;99.90;;;;;;5032521;28;20049;-70
2022/01/09 10:56:04;;;;;;;16.58;1.83;;;5.60;99.90;;;;;;5013205;28;281370;-70
2022/01/09 10:58:34;;;;;;;21.05;2.22;;;5.60;99.90;;;;;;5036714;28;20486;-70
2022/01/09 11:01:28;;;;;;;18.05;2.42;;;5.70;99.90;;;;;;4999670;28;41876;-72
2022/01/09 11:03:57;;;;;;;15.27;2.00;;;5.70;99.90;;;;;;4999398;28;268818;-70
2022/01/09 11:06:26;;;;;;;15.45;2.33;;;5.80;99.90;;;;;;5014168;28;20037;-70
2022/01/09 11:08:54;;;;;;;16.10;2.30;;;5.90;99.90;;;;;;5005269;28;264776;-71
2022/01/09 11:11:28;;;;;;;17.42;2.08;;;6.00;99.90;;;;;;5029940;28;20394;-71
2022/01/09 11:13:56;;;;;;;23.08;2.75;;;6.10;99.90;;;;;;5002434;28;258560;-71
2022/01/09 11:16:33;;;;;;;19.98;2.33;;;6.20;99.90;;;;;;5011123;28;20061;-71
2022/01/09 11:19:02;;;;;;;17.23;2.10;;;6.20;99.90;;;;;;5015767;28;275276;-70
2022/01/09 11:21:29;;;;;;;14.30;2.22;;;6.30;99.90;;;;;;5018606;28;20529;-70
2022/01/09 11:24:01;;;;;;;18.58;2.90;;;6.30;99.90;;;;;;5013998;28;270977;-71
2022/01/09 11:26:37;;;;;;;14.88;2.20;;;6.40;99.90;;;;;;5034243;28;20048;-71
2022/01/09 11:29:09;;;;;;;18.98;2.63;;;6.40;99.90;;;;;;5014010;28;269215;-70
2022/01/09 11:32:03;;;;;;;22.80;2.38;;;6.50;99.90;;;;;;5020370;28;20049;-70
2022/01/09 11:34:52;;;;;;;21.95;2.78;;;6.50;99.90;;;;;;5015616;28;265264;-70
2022/01/09 11:37:52;;;;;;;19.90;2.22;;;6.60;99.90;;;;;;5020628;28;20277;-71
2022/01/09 11:40:33;;;;;;;19.33;2.00;;;6.60;99.90;;;;;;5018681;28;275749;-71
2022/01/09 11:43:03;;;;;;;18.20;2.30;;;6.70;99.90;;;;;;5034493;28;21271;-70
2022/01/09 11:46:01;;;;;;;20.48;2.10;;;6.60;99.90;;;;;;5001976;28;267170;-72
2022/01/09 11:48:56;;;;;;;14.90;2.08;;;6.60;99.90;;;;;;5037467;28;20413;-71
2022/01/09 11:51:30;;;;;;;17.15;2.28;;;6.60;99.90;;;;;;4988993;28;20510;-70
2022/01/09 11:54:01;;;;;;;17.52;1.90;;;6.60;99.90;;;;;;5000967;28;274818;-71
2022/01/09 11:56:42;;;;;;;11.65;1.73;;;6.60;99.90;;;;;;5040022;28;20056;-71
2022/01/09 11:59:20;;;;;;;11.63;1.63;;;6.70;99.90;;;;;;5003347;28;240931;-71
2022/01/09 12:01:48;;;;;;;13.27;1.80;;;6.70;99.90;;;;;;5009788;28;20061;-71
2022/01/09 12:04:35;;;;;;;14.13;1.90;;;6.70;99.90;;;;;;4999463;28;255593;-70
2022/01/09 12:07:11;;;;;;;11.18;1.75;;;6.80;99.90;;;;;;5003854;28;20052;-71
2022/01/09 12:09:41;;;;;;;16.30;1.92;;;6.80;99.90;;;;;;4995757;28;236905;-70
2022/01/09 12:12:10;;;;;;;12.23;1.58;;;6.80;99.90;;;;;;5019697;28;20052;-71
2022/01/09 12:14:45;;;;;;;13.57;1.98;;;6.80;99.90;;;;;;5012810;28;257085;-71
2022/01/09 12:17:25;;;;;;;16.35;1.98;;;6.80;99.90;;;;;;5032726;28;20055;-70
2022/01/09 12:19:54;;;;;;;17.05;2.15;;;6.80;99.90;;;;;;4997720;28;228502;-71
2022/01/09 12:22:39;;;;;;;14.07;1.75;;;6.90;99.90;;;;;;5015734;28;20052;-70
2022/01/09 12:25:10;;;;;;;18.40;2.03;;;7.20;99.90;;;;;;4988104;28;181339;-70
2022/01/09 12:27:40;;;;;;;;;;;7.80;99.90;;;;;;5035120;28;20052;-70
2022/01/09 12:30:07;;;;;;;14.82;2.35;;;8.00;99.90;;;;;;5019140;28;272271;-71
2022/01/09 12:32:40;;;;;;;16.33;2.38;;;8.10;99.90;;;;;;5034457;28;20049;-70
2022/01/09 12:35:19;;;;;;;12.60;2.05;;;7.90;99.90;;;;;;5016525;28;253996;-70
2022/01/09 12:37:47;;;;;;;13.95;1.90;;;8.00;99.90;;;;;;5036092;28;20045;-71
2022/01/09 12:40:18;;;;;;;14.73;2.00;;;7.80;99.90;;;;;;5005947;28;98048;-70
2022/01/09 12:42:46;;;;;;;17.88;2.35;;;8.90;99.90;;;;;;5038477;28;20049;-70
2022/01/09 12:45:25;;;;;;;15.35;2.30;;;9.60;99.90;;;;;;5002245;28;266097;-70
2022/01/09 12:47:53;;;;;;;19.10;2.30;;;9.30;99.90;;;;;;5018945;28;20124;-70
2022/01/09 12:50:36;;;;;;;14.85;2.40;;;9.70;99.90;;;;;;5009696;28;270263;-71
2022/01/09 12:53:14;;;;;;;16.50;2.40;;;9.80;99.90;;;;;;5024472;28;20054;-71
2022/01/09 12:56:01;;;;;;;16.17;2.25;;;9.80;99.90;;;;;;5015068;28;266359;-71
2022/01/09 12:58:33;;;;;;;19.70;2.53;;;10.10;99.90;;;;;;5022334;28;20498;-71
2022/01/09 13:01:03;;;;;;;13.50;2.30;;;9.80;99.90;;;;;;5003238;28;150911;-71
2022/01/09 13:03:31;;;;;;;15.80;2.30;;;10.00;99.90;;;;;;5032001;28;20060;-71
2022/01/09 13:06:09;;;;;;;13.63;2.00;;;10.70;99.90;;;;;;5004635;28;245277;-71
2022/01/09 13:08:40;;;;;;;10.94;1.68;;;10.40;99.90;;;;;;5031272;28;293015;-69
2022/01/09 13:11:11;;;;;;;11.88;2.05;;;10.80;99.90;;;;;;5033389;28;20048;-71
2022/01/09 13:13:39;;;;;;;12.27;1.98;;;10.50;99.90;;;;;;5020274;28;257831;-70
2022/01/09 13:16:10;;;;;;;10.93;1.63;;;10.50;99.90;;;;;;5038125;28;20067;-71
2022/01/09 13:18:40;;;;;;;10.93;1.77;;;10.60;99.90;;;;;;5022638;28;256984;-71